sensor_id;sensor_type;location;lat;lon;timestamp;P1;durP1;ratioP1;P2;durP2;ratioP2
70247;SDS011;57641;51.416;5.506;2023-04-01T00:00:57;4.55;;;1.25;;
70247;SDS011;57641;51.416;5.506;2023-04-01T00:03:24;4.47;;;1.30;;
70247;SDS011;57641;51.416;5.506;2023-04-01T00:05:52;1.92;;;1.10;;
70247;SDS011;57641;51.416;5.506;2023-04-01T00:08:22;4.00;;;1.02;;
70247;SDS011;57641;51.416;5.506;2023-04-01T00:10:48;7.22;;;1.23;;
70247;SDS011;57641;51.416;5.506;2023-04-01T00:13:14;4.20;;;1.45;;
70247;SDS011;57641;51.416;5.506;2023-04-01T00:15:41;5.70;;;1.33;;
70247;SDS011;57641;51.416;5.506;2023-04-01T00:18:07;3.75;;;1.50;;
70247;SDS011;57641;51.416;5.506;2023-04-01T00:20:36;3.10;;;1.42;;
70247;SDS011;57641;51.416;5.506;2023-04-01T00:23:01;4.35;;;1.20;;
70247;SDS011;57641;51.416;5.506;2023-04-01T00:25:31;1.83;;;1.08;;
70247;SDS011;57641;51.416;5.506;2023-04-01T00:27:56;5.35;;;1.40;;
70247;SDS011;57641;51.416;5.506;2023-04-01T00:30:22;5.63;;;1.35;;
70247;SDS011;57641;51.416;5.506;2023-04-01T00:32:51;5.00;;;1.13;;
70247;SDS011;57641;51.416;5.506;2023-04-01T00:35:17;4.68;;;1.20;;
70247;SDS011;57641;51.416;5.506;2023-04-01T00:37:46;5.85;;;1.35;;
70247;SDS011;57641;51.416;5.506;2023-04-01T00:40:26;6.50;;;1.70;;
70247;SDS011;57641;51.416;5.506;2023-04-01T00:42:56;3.92;;;1.20;;
70247;SDS011;57641;51.416;5.506;2023-04-01T00:45:39;5.00;;;1.20;;
70247;SDS011;57641;51.416;5.506;2023-04-01T00:48:14;1.40;;;1.08;;
70247;SDS011;57641;51.416;5.506;2023-04-01T00:53:11;4.40;;;1.63;;
70247;SDS011;57641;51.416;5.506;2023-04-01T00:55:39;2.00;;;0.90;;
70247;SDS011;57641;51.416;5.506;2023-04-01T00:58:10;3.65;;;1.00;;
70247;SDS011;57641;51.416;5.506;2023-04-01T01:00:40;2.95;;;1.15;;
70247;SDS011;57641;51.416;5.506;2023-04-01T01:03:13;1.65;;;0.90;;
70247;SDS011;57641;51.416;5.506;2023-04-01T01:08:20;2.25;;;0.98;;
70247;SDS011;57641;51.416;5.506;2023-04-01T01:11:08;5.10;;;1.35;;
70247;SDS011;57641;51.416;5.506;2023-04-01T01:13:43;3.97;;;1.27;;
70247;SDS011;57641;51.416;5.506;2023-04-01T01:16:30;2.58;;;1.08;;
70247;SDS011;57641;51.416;5.506;2023-04-01T01:19:08;2.03;;;0.90;;
70247;SDS011;57641;51.416;5.506;2023-04-01T01:21:58;2.08;;;0.80;;
70247;SDS011;57641;51.416;5.506;2023-04-01T01:27:29;2.63;;;0.85;;
70247;SDS011;57641;51.416;5.506;2023-04-01T01:35:32;1.90;;;1.00;;
70247;SDS011;57641;51.416;5.506;2023-04-01T01:38:21;2.08;;;1.02;;
70247;SDS011;57641;51.416;5.506;2023-04-01T01:40:48;1.33;;;0.90;;
70247;SDS011;57641;51.416;5.506;2023-04-01T01:43:22;3.33;;;1.10;;
70247;SDS011;57641;51.416;5.506;2023-04-01T01:45:53;1.70;;;1.17;;
70247;SDS011;57641;51.416;5.506;2023-04-01T01:48:23;2.40;;;1.20;;
70247;SDS011;57641;51.416;5.506;2023-04-01T01:50:50;1.73;;;0.95;;
70247;SDS011;57641;51.416;5.506;2023-04-01T01:53:18;1.25;;;1.05;;
70247;SDS011;57641;51.416;5.506;2023-04-01T01:55:44;2.67;;;1.25;;
70247;SDS011;57641;51.416;5.506;2023-04-01T01:58:19;2.47;;;1.42;;
70247;SDS011;57641;51.416;5.506;2023-04-01T02:00:53;2.38;;;1.25;;
70247;SDS011;57641;51.416;5.506;2023-04-01T02:03:29;1.77;;;1.40;;
70247;SDS011;57641;51.416;5.506;2023-04-01T02:05:59;1.55;;;1.27;;
70247;SDS011;57641;51.416;5.506;2023-04-01T02:08:46;3.03;;;1.63;;
70247;SDS011;57641;51.416;5.506;2023-04-01T02:11:18;1.95;;;1.48;;
70247;SDS011;57641;51.416;5.506;2023-04-01T02:13:52;2.50;;;1.60;;
70247;SDS011;57641;51.416;5.506;2023-04-01T02:16:28;3.67;;;2.05;;
70247;SDS011;57641;51.416;5.506;2023-04-01T02:18:59;2.55;;;1.80;;
70247;SDS011;57641;51.416;5.506;2023-04-01T02:21:32;3.75;;;2.22;;
70247;SDS011;57641;51.416;5.506;2023-04-01T02:24:04;9.13;;;2.75;;
70247;SDS011;57641;51.416;5.506;2023-04-01T02:26:33;4.15;;;2.25;;
70247;SDS011;57641;51.416;5.506;2023-04-01T02:29:01;3.45;;;2.45;;
70247;SDS011;57641;51.416;5.506;2023-04-01T02:31:29;3.15;;;2.28;;
70247;SDS011;57641;51.416;5.506;2023-04-01T02:33:55;5.55;;;2.60;;
70247;SDS011;57641;51.416;5.506;2023-04-01T02:36:24;4.70;;;2.50;;
70247;SDS011;57641;51.416;5.506;2023-04-01T02:38:53;5.00;;;2.85;;
70247;SDS011;57641;51.416;5.506;2023-04-01T02:41:21;4.80;;;2.85;;
70247;SDS011;57641;51.416;5.506;2023-04-01T02:43:46;3.90;;;2.78;;
70247;SDS011;57641;51.416;5.506;2023-04-01T02:46:11;7.13;;;2.80;;
70247;SDS011;57641;51.416;5.506;2023-04-01T02:48:40;4.80;;;3.20;;
70247;SDS011;57641;51.416;5.506;2023-04-01T02:51:06;3.55;;;2.72;;
70247;SDS011;57641;51.416;5.506;2023-04-01T02:53:31;5.00;;;3.53;;
70247;SDS011;57641;51.416;5.506;2023-04-01T02:56:00;5.70;;;3.25;;
70247;SDS011;57641;51.416;5.506;2023-04-01T02:58:26;5.53;;;3.08;;
70247;SDS011;57641;51.416;5.506;2023-04-01T03:00:51;7.00;;;3.97;;
70247;SDS011;57641;51.416;5.506;2023-04-01T03:03:16;9.10;;;4.25;;
70247;SDS011;57641;51.416;5.506;2023-04-01T03:05:45;8.05;;;3.95;;
70247;SDS011;57641;51.416;5.506;2023-04-01T03:08:11;7.63;;;4.70;;
70247;SDS011;57641;51.416;5.506;2023-04-01T03:10:36;7.93;;;4.55;;
70247;SDS011;57641;51.416;5.506;2023-04-01T03:13:02;9.02;;;4.45;;
70247;SDS011;57641;51.416;5.506;2023-04-01T03:15:28;9.80;;;5.28;;
70247;SDS011;57641;51.416;5.506;2023-04-01T03:17:54;11.88;;;5.68;;
70247;SDS011;57641;51.416;5.506;2023-04-01T03:20:19;11.43;;;5.63;;
70247;SDS011;57641;51.416;5.506;2023-04-01T03:22:45;8.63;;;4.78;;
70247;SDS011;57641;51.416;5.506;2023-04-01T03:25:11;6.70;;;4.50;;
70247;SDS011;57641;51.416;5.506;2023-04-01T03:27:40;9.02;;;5.50;;
70247;SDS011;57641;51.416;5.506;2023-04-01T03:30:06;7.93;;;5.18;;
70247;SDS011;57641;51.416;5.506;2023-04-01T03:32:32;8.80;;;5.47;;
70247;SDS011;57641;51.416;5.506;2023-04-01T03:34:57;8.95;;;5.10;;
70247;SDS011;57641;51.416;5.506;2023-04-01T03:37:23;7.97;;;4.85;;
70247;SDS011;57641;51.416;5.506;2023-04-01T03:39:49;7.72;;;4.15;;
70247;SDS011;57641;51.416;5.506;2023-04-01T03:42:15;8.75;;;4.60;;
70247;SDS011;57641;51.416;5.506;2023-04-01T03:44:40;9.40;;;5.07;;
70247;SDS011;57641;51.416;5.506;2023-04-01T03:47:08;6.57;;;4.43;;
70247;SDS011;57641;51.416;5.506;2023-04-01T03:49:34;7.65;;;4.10;;
70247;SDS011;57641;51.416;5.506;2023-04-01T03:52:00;7.90;;;4.50;;
70247;SDS011;57641;51.416;5.506;2023-04-01T03:54:26;6.78;;;4.30;;
70247;SDS011;57641;51.416;5.506;2023-04-01T03:56:51;7.95;;;4.70;;
70247;SDS011;57641;51.416;5.506;2023-04-01T03:59:17;6.63;;;4.55;;
70247;SDS011;57641;51.416;5.506;2023-04-01T04:01:43;8.10;;;5.35;;
70247;SDS011;57641;51.416;5.506;2023-04-01T04:04:10;7.38;;;4.63;;
70247;SDS011;57641;51.416;5.506;2023-04-01T04:06:38;8.40;;;5.05;;
70247;SDS011;57641;51.416;5.506;2023-04-01T04:09:04;7.60;;;5.28;;
70247;SDS011;57641;51.416;5.506;2023-04-01T04:11:30;7.40;;;4.95;;
70247;SDS011;57641;51.416;5.506;2023-04-01T04:13:57;8.75;;;4.88;;
70247;SDS011;57641;51.416;5.506;2023-04-01T04:16:23;11.63;;;5.32;;
70247;SDS011;57641;51.416;5.506;2023-04-01T04:18:48;9.80;;;5.82;;
70247;SDS011;57641;51.416;5.506;2023-04-01T04:21:14;10.98;;;6.57;;
70247;SDS011;57641;51.416;5.506;2023-04-01T04:23:40;11.15;;;6.78;;
70247;SDS011;57641;51.416;5.506;2023-04-01T04:26:07;13.35;;;6.90;;
70247;SDS011;57641;51.416;5.506;2023-04-01T04:28:35;10.63;;;5.90;;
70247;SDS011;57641;51.416;5.506;2023-04-01T04:31:01;13.05;;;6.43;;
70247;SDS011;57641;51.416;5.506;2023-04-01T04:33:27;10.85;;;6.28;;
70247;SDS011;57641;51.416;5.506;2023-04-01T04:35:54;11.30;;;6.50;;
70247;SDS011;57641;51.416;5.506;2023-04-01T04:38:21;9.95;;;5.43;;
70247;SDS011;57641;51.416;5.506;2023-04-01T04:40:47;9.52;;;5.50;;
70247;SDS011;57641;51.416;5.506;2023-04-01T04:43:14;10.85;;;5.85;;
70247;SDS011;57641;51.416;5.506;2023-04-01T04:45:40;11.63;;;6.25;;
70247;SDS011;57641;51.416;5.506;2023-04-01T04:48:07;9.60;;;5.63;;
70247;SDS011;57641;51.416;5.506;2023-04-01T04:50:34;10.18;;;5.22;;
70247;SDS011;57641;51.416;5.506;2023-04-01T04:53:00;10.85;;;5.90;;
70247;SDS011;57641;51.416;5.506;2023-04-01T04:55:28;10.20;;;5.43;;
70247;SDS011;57641;51.416;5.506;2023-04-01T04:57:54;10.73;;;6.10;;
70247;SDS011;57641;51.416;5.506;2023-04-01T05:00:19;8.32;;;5.22;;
70247;SDS011;57641;51.416;5.506;2023-04-01T05:02:45;11.48;;;5.47;;
70247;SDS011;57641;51.416;5.506;2023-04-01T05:05:11;8.80;;;5.43;;
70247;SDS011;57641;51.416;5.506;2023-04-01T05:07:36;9.98;;;5.82;;
70247;SDS011;57641;51.416;5.506;2023-04-01T05:10:02;9.40;;;4.68;;
70247;SDS011;57641;51.416;5.506;2023-04-01T05:12:27;7.88;;;4.95;;
70247;SDS011;57641;51.416;5.506;2023-04-01T05:14:53;7.60;;;4.72;;
70247;SDS011;57641;51.416;5.506;2023-04-01T05:17:21;9.60;;;4.85;;
70247;SDS011;57641;51.416;5.506;2023-04-01T05:19:46;9.52;;;5.13;;
70247;SDS011;57641;51.416;5.506;2023-04-01T05:22:12;6.85;;;4.05;;
70247;SDS011;57641;51.416;5.506;2023-04-01T05:24:37;9.85;;;5.00;;
70247;SDS011;57641;51.416;5.506;2023-04-01T05:27:03;8.60;;;4.90;;
70247;SDS011;57641;51.416;5.506;2023-04-01T05:29:28;7.07;;;4.40;;
70247;SDS011;57641;51.416;5.506;2023-04-01T05:31:57;9.23;;;4.53;;
70247;SDS011;57641;51.416;5.506;2023-04-01T05:34:23;6.70;;;3.55;;
70247;SDS011;57641;51.416;5.506;2023-04-01T05:36:49;5.30;;;3.60;;
70247;SDS011;57641;51.416;5.506;2023-04-01T05:39:17;5.53;;;3.00;;
70247;SDS011;57641;51.416;5.506;2023-04-01T05:41:43;7.00;;;4.13;;
70247;SDS011;57641;51.416;5.506;2023-04-01T05:44:10;5.90;;;3.88;;
70247;SDS011;57641;51.416;5.506;2023-04-01T05:46:37;4.85;;;2.90;;
70247;SDS011;57641;51.416;5.506;2023-04-01T05:49:02;5.40;;;3.45;;
70247;SDS011;57641;51.416;5.506;2023-04-01T05:51:28;4.00;;;2.55;;
70247;SDS011;57641;51.416;5.506;2023-04-01T05:53:53;5.85;;;3.20;;
70247;SDS011;57641;51.416;5.506;2023-04-01T05:56:19;4.95;;;3.03;;
70247;SDS011;57641;51.416;5.506;2023-04-01T05:58:46;5.70;;;3.38;;
70247;SDS011;57641;51.416;5.506;2023-04-01T06:01:21;4.80;;;2.92;;
70247;SDS011;57641;51.416;5.506;2023-04-01T06:03:47;6.10;;;3.22;;
70247;SDS011;57641;51.416;5.506;2023-04-01T06:06:26;5.00;;;3.22;;
70247;SDS011;57641;51.416;5.506;2023-04-01T06:08:53;6.47;;;3.40;;
70247;SDS011;57641;51.416;5.506;2023-04-01T06:11:33;5.68;;;2.80;;
70247;SDS011;57641;51.416;5.506;2023-04-01T06:16:44;5.65;;;3.22;;
70247;SDS011;57641;51.416;5.506;2023-04-01T06:22:39;7.90;;;3.65;;
70247;SDS011;57641;51.416;5.506;2023-04-01T06:25:43;7.15;;;3.10;;
70247;SDS011;57641;51.416;5.506;2023-04-01T06:31:26;6.50;;;3.08;;
70247;SDS011;57641;51.416;5.506;2023-04-01T06:34:26;7.43;;;3.67;;
70247;SDS011;57641;51.416;5.506;2023-04-01T06:42:50;6.10;;;3.05;;
70247;SDS011;57641;51.416;5.506;2023-04-01T06:53:29;7.72;;;3.42;;
70247;SDS011;57641;51.416;5.506;2023-04-01T06:55:57;3.88;;;2.63;;
70247;SDS011;57641;51.416;5.506;2023-04-01T06:58:31;6.38;;;3.25;;
70247;SDS011;57641;51.416;5.506;2023-04-01T07:04:05;6.38;;;3.42;;
70247;SDS011;57641;51.416;5.506;2023-04-01T07:06:42;7.70;;;4.03;;
70247;SDS011;57641;51.416;5.506;2023-04-01T07:09:14;8.82;;;4.25;;
70247;SDS011;57641;51.416;5.506;2023-04-01T07:11:44;8.43;;;4.60;;
70247;SDS011;57641;51.416;5.506;2023-04-01T07:19:33;8.43;;;4.28;;
70247;SDS011;57641;51.416;5.506;2023-04-01T07:24:40;9.30;;;4.68;;
70247;SDS011;57641;51.416;5.506;2023-04-01T07:27:10;11.93;;;5.70;;
70247;SDS011;57641;51.416;5.506;2023-04-01T07:29:37;10.35;;;5.25;;
70247;SDS011;57641;51.416;5.506;2023-04-01T07:37:17;17.30;;;8.57;;
70247;SDS011;57641;51.416;5.506;2023-04-01T07:50:40;16.92;;;8.70;;
70247;SDS011;57641;51.416;5.506;2023-04-01T07:53:36;20.10;;;9.93;;
70247;SDS011;57641;51.416;5.506;2023-04-01T07:56:19;19.35;;;9.15;;
70247;SDS011;57641;51.416;5.506;2023-04-01T07:59:16;23.73;;;11.60;;
70247;SDS011;57641;51.416;5.506;2023-04-01T08:01:55;23.35;;;10.70;;
70247;SDS011;57641;51.416;5.506;2023-04-01T08:05:25;20.67;;;10.13;;
70247;SDS011;57641;51.416;5.506;2023-04-01T08:10:13;22.70;;;10.65;;
70247;SDS011;57641;51.416;5.506;2023-04-01T08:18:39;21.83;;;10.65;;
70247;SDS011;57641;51.416;5.506;2023-04-01T08:24:04;26.48;;;11.82;;
70247;SDS011;57641;51.416;5.506;2023-04-01T08:26:53;27.42;;;12.73;;
70247;SDS011;57641;51.416;5.506;2023-04-01T08:29:25;30.08;;;12.82;;
70247;SDS011;57641;51.416;5.506;2023-04-01T08:32:15;29.33;;;12.57;;
70247;SDS011;57641;51.416;5.506;2023-04-01T08:34:48;24.20;;;11.93;;
70247;SDS011;57641;51.416;5.506;2023-04-01T08:37:28;23.52;;;11.30;;
70247;SDS011;57641;51.416;5.506;2023-04-01T08:40:01;25.40;;;12.73;;
70247;SDS011;57641;51.416;5.506;2023-04-01T08:45:25;24.45;;;12.48;;
70247;SDS011;57641;51.416;5.506;2023-04-01T08:56:19;21.08;;;9.10;;
70247;SDS011;57641;51.416;5.506;2023-04-01T09:18:19;17.85;;;8.38;;
70247;SDS011;57641;51.416;5.506;2023-04-01T09:51:31;14.55;;;7.80;;
70247;SDS011;57641;51.416;5.506;2023-04-01T09:54:31;12.80;;;6.93;;
70247;SDS011;57641;51.416;5.506;2023-04-01T10:00:25;9.70;;;5.25;;
70247;SDS011;57641;51.416;5.506;2023-04-01T10:08:33;10.13;;;5.07;;
70247;SDS011;57641;51.416;5.506;2023-04-01T10:25:15;13.93;;;6.63;;
70247;SDS011;57641;51.416;5.506;2023-04-01T10:30:50;14.07;;;7.13;;
70247;SDS011;57641;51.416;5.506;2023-04-01T10:41:44;12.85;;;6.93;;
70247;SDS011;57641;51.416;5.506;2023-04-01T11:24:43;8.55;;;4.63;;
70247;SDS011;57641;51.416;5.506;2023-04-01T11:33:44;8.07;;;4.25;;
70247;SDS011;57641;51.416;5.506;2023-04-01T11:44:35;9.80;;;5.53;;
70247;SDS011;57641;51.416;5.506;2023-04-01T11:53:10;9.23;;;5.32;;
70247;SDS011;57641;51.416;5.506;2023-04-01T11:56:21;7.30;;;4.85;;
70247;SDS011;57641;51.416;5.506;2023-04-01T11:58:41;9.73;;;5.30;;
70247;SDS011;57641;51.416;5.506;2023-04-01T12:03:43;7.10;;;4.13;;
70247;SDS011;57641;51.416;5.506;2023-04-01T12:09:17;8.15;;;4.90;;
70247;SDS011;57641;51.416;5.506;2023-04-01T12:14:41;9.63;;;6.07;;
70247;SDS011;57641;51.416;5.506;2023-04-01T12:20:44;8.55;;;4.93;;
70247;SDS011;57641;51.416;5.506;2023-04-01T12:31:41;8.45;;;4.53;;
70247;SDS011;57641;51.416;5.506;2023-04-01T13:05:24;7.10;;;3.42;;
70247;SDS011;57641;51.416;5.506;2023-04-01T13:10:31;9.38;;;4.72;;
70247;SDS011;57641;51.416;5.506;2023-04-01T13:22:14;11.25;;;5.15;;
70247;SDS011;57641;51.416;5.506;2023-04-01T13:30:22;7.88;;;4.65;;
70247;SDS011;57641;51.416;5.506;2023-04-01T13:50:08;11.10;;;5.03;;
70247;SDS011;57641;51.416;5.506;2023-04-01T13:52:33;9.45;;;5.07;;
70247;SDS011;57641;51.416;5.506;2023-04-01T14:01:05;10.57;;;5.88;;
70247;SDS011;57641;51.416;5.506;2023-04-01T14:07:04;10.50;;;5.40;;
70247;SDS011;57641;51.416;5.506;2023-04-01T14:09:37;10.20;;;5.05;;
70247;SDS011;57641;51.416;5.506;2023-04-01T14:17:50;9.98;;;5.10;;
70247;SDS011;57641;51.416;5.506;2023-04-01T14:20:29;11.15;;;5.28;;
70247;SDS011;57641;51.416;5.506;2023-04-01T14:23:28;11.57;;;6.10;;
70247;SDS011;57641;51.416;5.506;2023-04-01T14:37:10;8.38;;;4.40;;
70247;SDS011;57641;51.416;5.506;2023-04-01T14:48:25;9.45;;;4.90;;
70247;SDS011;57641;51.416;5.506;2023-04-01T14:51:02;9.15;;;4.30;;
70247;SDS011;57641;51.416;5.506;2023-04-01T14:56:37;6.47;;;4.43;;
70247;SDS011;57641;51.416;5.506;2023-04-01T14:59:25;8.52;;;4.30;;
70247;SDS011;57641;51.416;5.506;2023-04-01T15:01:57;6.15;;;3.67;;
70247;SDS011;57641;51.416;5.506;2023-04-01T15:09:53;5.78;;;2.80;;
70247;SDS011;57641;51.416;5.506;2023-04-01T15:12:52;5.30;;;3.53;;
70247;SDS011;57641;51.416;5.506;2023-04-01T15:15:28;7.20;;;2.85;;
70247;SDS011;57641;51.416;5.506;2023-04-01T15:43:41;6.82;;;4.28;;
70247;SDS011;57641;51.416;5.506;2023-04-01T16:00:52;7.63;;;4.60;;
70247;SDS011;57641;51.416;5.506;2023-04-01T16:03:30;7.80;;;4.15;;
70247;SDS011;57641;51.416;5.506;2023-04-01T16:14:55;7.07;;;4.80;;
70247;SDS011;57641;51.416;5.506;2023-04-01T16:20:25;6.55;;;4.43;;
70247;SDS011;57641;51.416;5.506;2023-04-01T16:26:22;6.65;;;4.57;;
70247;SDS011;57641;51.416;5.506;2023-04-01T16:34:16;7.20;;;4.50;;
70247;SDS011;57641;51.416;5.506;2023-04-01T16:36:51;9.80;;;5.22;;
70247;SDS011;57641;51.416;5.506;2023-04-01T16:42:52;9.80;;;5.75;;
70247;SDS011;57641;51.416;5.506;2023-04-01T16:45:36;10.60;;;5.38;;
70247;SDS011;57641;51.416;5.506;2023-04-01T17:01:55;8.40;;;5.13;;
70247;SDS011;57641;51.416;5.506;2023-04-01T17:07:11;8.43;;;5.20;;
70247;SDS011;57641;51.416;5.506;2023-04-01T17:20:19;13.85;;;7.43;;
70247;SDS011;57641;51.416;5.506;2023-04-01T17:23:00;13.38;;;8.05;;
70247;SDS011;57641;51.416;5.506;2023-04-01T17:41:53;12.80;;;7.43;;
70247;SDS011;57641;51.416;5.506;2023-04-01T17:50:00;10.95;;;6.57;;
70247;SDS011;57641;51.416;5.506;2023-04-01T17:53:06;13.02;;;7.30;;
70247;SDS011;57641;51.416;5.506;2023-04-01T17:58:45;12.43;;;6.65;;
70247;SDS011;57641;51.416;5.506;2023-04-01T18:01:21;13.68;;;7.40;;
70247;SDS011;57641;51.416;5.506;2023-04-01T18:09:38;11.82;;;7.43;;
70247;SDS011;57641;51.416;5.506;2023-04-01T18:23:53;5.68;;;4.50;;
70247;SDS011;57641;51.416;5.506;2023-04-01T18:26:41;4.72;;;3.47;;
70247;SDS011;57641;51.416;5.506;2023-04-01T18:46:20;9.15;;;5.78;;
70247;SDS011;57641;51.416;5.506;2023-04-01T18:57:18;8.60;;;5.40;;
70247;SDS011;57641;51.416;5.506;2023-04-01T18:59:53;8.32;;;5.00;;
70247;SDS011;57641;51.416;5.506;2023-04-01T19:02:30;5.40;;;3.65;;
70247;SDS011;57641;51.416;5.506;2023-04-01T19:05:11;7.57;;;4.73;;
70247;SDS011;57641;51.416;5.506;2023-04-01T19:07:48;6.70;;;4.00;;
70247;SDS011;57641;51.416;5.506;2023-04-01T19:10:17;6.35;;;4.03;;
70247;SDS011;57641;51.416;5.506;2023-04-01T19:15:57;7.72;;;4.80;;
70247;SDS011;57641;51.416;5.506;2023-04-01T19:19:04;5.53;;;3.50;;
70247;SDS011;57641;51.416;5.506;2023-04-01T19:21:37;8.13;;;3.90;;
70247;SDS011;57641;51.416;5.506;2023-04-01T19:24:23;5.90;;;3.50;;
70247;SDS011;57641;51.416;5.506;2023-04-01T19:38:04;7.30;;;4.65;;
70247;SDS011;57641;51.416;5.506;2023-04-01T19:40:49;7.43;;;5.03;;
70247;SDS011;57641;51.416;5.506;2023-04-01T19:43:39;8.98;;;5.70;;
70247;SDS011;57641;51.416;5.506;2023-04-01T19:46:21;8.75;;;5.05;;
70247;SDS011;57641;51.416;5.506;2023-04-01T19:53:56;9.55;;;5.78;;
70247;SDS011;57641;51.416;5.506;2023-04-01T19:56:39;10.75;;;6.38;;
70247;SDS011;57641;51.416;5.506;2023-04-01T20:01:49;10.13;;;5.82;;
70247;SDS011;57641;51.416;5.506;2023-04-01T20:07:20;10.35;;;5.82;;
70247;SDS011;57641;51.416;5.506;2023-04-01T20:13:43;9.57;;;5.72;;
70247;SDS011;57641;51.416;5.506;2023-04-01T20:16:11;11.07;;;6.60;;
70247;SDS011;57641;51.416;5.506;2023-04-01T20:21:06;11.20;;;6.35;;
70247;SDS011;57641;51.416;5.506;2023-04-01T20:23:41;11.27;;;7.10;;
70247;SDS011;57641;51.416;5.506;2023-04-01T20:26:11;10.73;;;6.70;;
70247;SDS011;57641;51.416;5.506;2023-04-01T20:29:02;10.70;;;6.13;;
70247;SDS011;57641;51.416;5.506;2023-04-01T20:32:05;12.10;;;6.57;;
70247;SDS011;57641;51.416;5.506;2023-04-01T20:45:45;11.18;;;6.47;;
70247;SDS011;57641;51.416;5.506;2023-04-01T20:51:35;10.07;;;5.70;;
70247;SDS011;57641;51.416;5.506;2023-04-01T20:57:04;11.77;;;6.47;;
70247;SDS011;57641;51.416;5.506;2023-04-01T21:00:03;12.38;;;6.53;;
70247;SDS011;57641;51.416;5.506;2023-04-01T21:02:52;11.70;;;7.18;;
70247;SDS011;57641;51.416;5.506;2023-04-01T21:11:18;10.45;;;6.32;;
70247;SDS011;57641;51.416;5.506;2023-04-01T21:22:55;9.27;;;5.90;;
70247;SDS011;57641;51.416;5.506;2023-04-01T21:25:26;10.38;;;6.28;;
70247;SDS011;57641;51.416;5.506;2023-04-01T21:49:55;13.57;;;6.72;;
70247;SDS011;57641;51.416;5.506;2023-04-01T21:52:25;10.63;;;6.85;;
70247;SDS011;57641;51.416;5.506;2023-04-01T22:05:50;10.88;;;7.05;;
70247;SDS011;57641;51.416;5.506;2023-04-01T22:08:33;11.88;;;6.78;;
70247;SDS011;57641;51.416;5.506;2023-04-01T22:11:12;8.95;;;5.50;;
70247;SDS011;57641;51.416;5.506;2023-04-01T22:25:22;12.05;;;7.60;;
70247;SDS011;57641;51.416;5.506;2023-04-01T22:28:04;11.75;;;7.07;;
70247;SDS011;57641;51.416;5.506;2023-04-01T22:30:50;9.23;;;5.97;;
70247;SDS011;57641;51.416;5.506;2023-04-01T22:33:22;10.82;;;6.90;;
70247;SDS011;57641;51.416;5.506;2023-04-01T22:42:34;9.05;;;6.25;;
70247;SDS011;57641;51.416;5.506;2023-04-01T22:47:39;11.52;;;7.65;;
70247;SDS011;57641;51.416;5.506;2023-04-01T22:50:41;9.75;;;6.80;;
70247;SDS011;57641;51.416;5.506;2023-04-01T22:53:06;12.77;;;7.68;;
70247;SDS011;57641;51.416;5.506;2023-04-01T22:55:52;13.68;;;7.60;;
70247;SDS011;57641;51.416;5.506;2023-04-01T22:58:25;17.38;;;9.02;;
70247;SDS011;57641;51.416;5.506;2023-04-01T23:03:55;13.63;;;8.15;;
70247;SDS011;57641;51.416;5.506;2023-04-01T23:06:26;15.05;;;9.00;;
70247;SDS011;57641;51.416;5.506;2023-04-01T23:16:54;13.98;;;8.25;;
70247;SDS011;57641;51.416;5.506;2023-04-01T23:22:27;11.30;;;7.50;;
70247;SDS011;57641;51.416;5.506;2023-04-01T23:25:17;11.13;;;6.25;;
70247;SDS011;57641;51.416;5.506;2023-04-01T23:28:15;9.82;;;6.57;;
70247;SDS011;57641;51.416;5.506;2023-04-01T23:30:48;8.27;;;5.35;;
70247;SDS011;57641;51.416;5.506;2023-04-01T23:38:21;11.50;;;7.22;;
70247;SDS011;57641;51.416;5.506;2023-04-01T23:40:49;10.98;;;6.68;;
70247;SDS011;57641;51.416;5.506;2023-04-01T23:43:27;9.18;;;6.50;;
70247;SDS011;57641;51.416;5.506;2023-04-01T23:46:05;11.25;;;6.72;;
70247;SDS011;57641;51.416;5.506;2023-04-01T23:51:01;11.23;;;6.50;;
70247;SDS011;57641;51.416;5.506;2023-04-01T23:53:29;11.80;;;7.35;;
70247;SDS011;57641;51.416;5.506;2023-04-01T23:55:57;10.65;;;7.35;;
70247;SDS011;57641;51.416;5.506;2023-04-01T23:58:38;13.10;;;7.57;;
